sensor_id;sensor_type;location;lat;lon;timestamp;P1;durP1;ratioP1;P2;durP2;ratioP2
49858;SDS011;35756;52.346;13.622;2022-08-21T00:01:14;6.85;;;5.60;;
49858;SDS011;35756;52.346;13.622;2022-08-21T00:03:44;8.40;;;5.90;;
49858;SDS011;35756;52.346;13.622;2022-08-21T00:06:09;8.65;;;7.00;;
49858;SDS011;35756;52.346;13.622;2022-08-21T00:08:34;9.15;;;5.97;;
49858;SDS011;35756;52.346;13.622;2022-08-21T00:11:00;7.35;;;6.07;;
49858;SDS011;35756;52.346;13.622;2022-08-21T00:13:25;6.60;;;5.75;;
49858;SDS011;35756;52.346;13.622;2022-08-21T00:15:51;6.93;;;6.20;;
49858;SDS011;35756;52.346;13.622;2022-08-21T00:18:16;7.47;;;6.00;;
49858;SDS011;35756;52.346;13.622;2022-08-21T00:20:43;6.05;;;5.30;;
49858;SDS011;35756;52.346;13.622;2022-08-21T00:23:09;7.57;;;6.03;;
49858;SDS011;35756;52.346;13.622;2022-08-21T00:25:34;9.20;;;5.53;;
49858;SDS011;35756;52.346;13.622;2022-08-21T00:28:00;6.85;;;5.60;;
49858;SDS011;35756;52.346;13.622;2022-08-21T00:30:26;6.68;;;5.70;;
49858;SDS011;35756;52.346;13.622;2022-08-21T00:32:52;8.52;;;5.70;;
49858;SDS011;35756;52.346;13.622;2022-08-21T00:35:21;6.75;;;5.75;;
49858;SDS011;35756;52.346;13.622;2022-08-21T00:37:48;5.97;;;5.18;;
49858;SDS011;35756;52.346;13.622;2022-08-21T00:40:15;8.25;;;5.75;;
49858;SDS011;35756;52.346;13.622;2022-08-21T00:42:43;7.28;;;5.72;;
49858;SDS011;35756;52.346;13.622;2022-08-21T00:45:09;6.95;;;5.40;;
49858;SDS011;35756;52.346;13.622;2022-08-21T00:47:35;6.85;;;5.22;;
49858;SDS011;35756;52.346;13.622;2022-08-21T00:50:00;6.32;;;5.28;;
49858;SDS011;35756;52.346;13.622;2022-08-21T00:52:27;6.97;;;5.32;;
49858;SDS011;35756;52.346;13.622;2022-08-21T00:54:54;9.80;;;5.72;;
49858;SDS011;35756;52.346;13.622;2022-08-21T00:57:22;9.20;;;5.90;;
49858;SDS011;35756;52.346;13.622;2022-08-21T00:59:51;7.07;;;5.43;;
49858;SDS011;35756;52.346;13.622;2022-08-21T01:02:20;6.82;;;5.45;;
49858;SDS011;35756;52.346;13.622;2022-08-21T01:04:46;8.00;;;6.20;;
49858;SDS011;35756;52.346;13.622;2022-08-21T01:07:11;6.53;;;5.22;;
49858;SDS011;35756;52.346;13.622;2022-08-21T01:09:37;6.80;;;6.03;;
49858;SDS011;35756;52.346;13.622;2022-08-21T01:12:03;10.55;;;6.45;;
49858;SDS011;35756;52.346;13.622;2022-08-21T01:14:29;7.90;;;6.07;;
49858;SDS011;35756;52.346;13.622;2022-08-21T01:16:55;6.53;;;5.85;;
49858;SDS011;35756;52.346;13.622;2022-08-21T01:19:21;7.10;;;5.65;;
49858;SDS011;35756;52.346;13.622;2022-08-21T01:21:47;6.85;;;5.90;;
49858;SDS011;35756;52.346;13.622;2022-08-21T01:24:12;6.32;;;5.20;;
49858;SDS011;35756;52.346;13.622;2022-08-21T01:26:38;6.47;;;5.78;;
49858;SDS011;35756;52.346;13.622;2022-08-21T01:31:35;7.45;;;5.78;;
49858;SDS011;35756;52.346;13.622;2022-08-21T01:34:02;7.68;;;5.95;;
49858;SDS011;35756;52.346;13.622;2022-08-21T01:36:28;6.63;;;5.38;;
49858;SDS011;35756;52.346;13.622;2022-08-21T01:38:53;7.25;;;5.35;;
49858;SDS011;35756;52.346;13.622;2022-08-21T01:41:18;6.57;;;5.18;;
49858;SDS011;35756;52.346;13.622;2022-08-21T01:43:44;7.60;;;6.05;;
49858;SDS011;35756;52.346;13.622;2022-08-21T01:46:10;7.35;;;5.25;;
49858;SDS011;35756;52.346;13.622;2022-08-21T01:48:36;6.47;;;5.78;;
49858;SDS011;35756;52.346;13.622;2022-08-21T01:51:02;7.47;;;5.82;;
49858;SDS011;35756;52.346;13.622;2022-08-21T01:53:28;8.90;;;6.40;;
49858;SDS011;35756;52.346;13.622;2022-08-21T01:55:53;7.10;;;4.90;;
49858;SDS011;35756;52.346;13.622;2022-08-21T01:58:18;6.70;;;5.38;;
49858;SDS011;35756;52.346;13.622;2022-08-21T02:00:44;7.10;;;5.63;;
49858;SDS011;35756;52.346;13.622;2022-08-21T02:03:09;10.73;;;5.80;;
49858;SDS011;35756;52.346;13.622;2022-08-21T02:05:34;6.50;;;5.45;;
49858;SDS011;35756;52.346;13.622;2022-08-21T02:08:00;8.13;;;6.18;;
49858;SDS011;35756;52.346;13.622;2022-08-21T02:10:26;8.77;;;5.53;;
49858;SDS011;35756;52.346;13.622;2022-08-21T02:12:54;9.10;;;5.88;;
49858;SDS011;35756;52.346;13.622;2022-08-21T02:15:20;9.60;;;5.97;;
49858;SDS011;35756;52.346;13.622;2022-08-21T02:17:46;6.68;;;5.50;;
49858;SDS011;35756;52.346;13.622;2022-08-21T02:20:27;7.45;;;5.60;;
49858;SDS011;35756;52.346;13.622;2022-08-21T02:22:57;7.22;;;5.45;;
49858;SDS011;35756;52.346;13.622;2022-08-21T02:25:24;7.53;;;5.60;;
49858;SDS011;35756;52.346;13.622;2022-08-21T02:27:50;6.00;;;5.30;;
49858;SDS011;35756;52.346;13.622;2022-08-21T02:30:21;6.22;;;5.10;;
49858;SDS011;35756;52.346;13.622;2022-08-21T02:32:51;7.70;;;6.05;;
49858;SDS011;35756;52.346;13.622;2022-08-21T02:35:16;5.85;;;4.85;;
49858;SDS011;35756;52.346;13.622;2022-08-21T02:37:42;6.60;;;5.50;;
49858;SDS011;35756;52.346;13.622;2022-08-21T02:40:17;7.85;;;5.78;;
49858;SDS011;35756;52.346;13.622;2022-08-21T02:42:43;5.85;;;5.20;;
49858;SDS011;35756;52.346;13.622;2022-08-21T02:45:09;6.05;;;5.03;;
49858;SDS011;35756;52.346;13.622;2022-08-21T02:47:36;6.63;;;5.28;;
49858;SDS011;35756;52.346;13.622;2022-08-21T02:50:01;7.10;;;5.35;;
49858;SDS011;35756;52.346;13.622;2022-08-21T02:52:27;5.72;;;5.00;;
49858;SDS011;35756;52.346;13.622;2022-08-21T02:54:52;7.63;;;5.28;;
49858;SDS011;35756;52.346;13.622;2022-08-21T02:57:17;5.68;;;5.07;;
49858;SDS011;35756;52.346;13.622;2022-08-21T02:59:42;6.72;;;5.10;;
49858;SDS011;35756;52.346;13.622;2022-08-21T03:02:08;6.75;;;5.35;;
49858;SDS011;35756;52.346;13.622;2022-08-21T03:04:33;7.78;;;5.20;;
49858;SDS011;35756;52.346;13.622;2022-08-21T03:06:58;5.82;;;4.63;;
49858;SDS011;35756;52.346;13.622;2022-08-21T03:09:24;5.63;;;4.70;;
49858;SDS011;35756;52.346;13.622;2022-08-21T03:11:50;7.20;;;5.30;;
49858;SDS011;35756;52.346;13.622;2022-08-21T03:14:16;5.70;;;4.82;;
49858;SDS011;35756;52.346;13.622;2022-08-21T03:16:41;6.90;;;5.20;;
49858;SDS011;35756;52.346;13.622;2022-08-21T03:19:07;5.88;;;4.53;;
49858;SDS011;35756;52.346;13.622;2022-08-21T03:21:32;6.32;;;4.88;;
49858;SDS011;35756;52.346;13.622;2022-08-21T03:23:58;5.93;;;4.95;;
49858;SDS011;35756;52.346;13.622;2022-08-21T03:26:23;7.03;;;4.97;;
49858;SDS011;35756;52.346;13.622;2022-08-21T03:28:49;7.05;;;4.75;;
49858;SDS011;35756;52.346;13.622;2022-08-21T03:31:15;5.72;;;4.78;;
49858;SDS011;35756;52.346;13.622;2022-08-21T03:33:41;5.88;;;4.90;;
49858;SDS011;35756;52.346;13.622;2022-08-21T03:36:07;6.22;;;4.28;;
49858;SDS011;35756;52.346;13.622;2022-08-21T03:38:33;6.72;;;4.60;;
49858;SDS011;35756;52.346;13.622;2022-08-21T03:41:00;5.53;;;4.75;;
49858;SDS011;35756;52.346;13.622;2022-08-21T03:43:26;4.78;;;4.18;;
49858;SDS011;35756;52.346;13.622;2022-08-21T03:45:51;7.22;;;4.88;;
49858;SDS011;35756;52.346;13.622;2022-08-21T03:48:17;6.07;;;4.45;;
49858;SDS011;35756;52.346;13.622;2022-08-21T03:50:42;6.43;;;4.22;;
49858;SDS011;35756;52.346;13.622;2022-08-21T03:53:09;6.50;;;4.55;;
49858;SDS011;35756;52.346;13.622;2022-08-21T03:55:35;5.45;;;4.32;;
49858;SDS011;35756;52.346;13.622;2022-08-21T03:58:00;7.35;;;5.00;;
49858;SDS011;35756;52.346;13.622;2022-08-21T04:00:26;5.38;;;4.40;;
49858;SDS011;35756;52.346;13.622;2022-08-21T04:02:51;8.13;;;5.18;;
49858;SDS011;35756;52.346;13.622;2022-08-21T04:05:17;7.13;;;4.38;;
49858;SDS011;35756;52.346;13.622;2022-08-21T04:07:52;5.35;;;4.45;;
49858;SDS011;35756;52.346;13.622;2022-08-21T04:12:51;5.35;;;4.05;;
49858;SDS011;35756;52.346;13.622;2022-08-21T04:15:17;5.50;;;4.20;;
49858;SDS011;35756;52.346;13.622;2022-08-21T04:17:42;6.00;;;4.82;;
49858;SDS011;35756;52.346;13.622;2022-08-21T04:20:08;4.68;;;3.95;;
49858;SDS011;35756;52.346;13.622;2022-08-21T04:22:33;7.50;;;4.15;;
49858;SDS011;35756;52.346;13.622;2022-08-21T04:24:58;7.18;;;4.07;;
49858;SDS011;35756;52.346;13.622;2022-08-21T04:27:24;6.60;;;4.50;;
49858;SDS011;35756;52.346;13.622;2022-08-21T04:29:49;5.80;;;4.28;;
49858;SDS011;35756;52.346;13.622;2022-08-21T04:32:21;5.95;;;4.15;;
49858;SDS011;35756;52.346;13.622;2022-08-21T04:34:47;6.15;;;4.30;;
49858;SDS011;35756;52.346;13.622;2022-08-21T04:37:12;6.18;;;4.10;;
49858;SDS011;35756;52.346;13.622;2022-08-21T04:39:37;7.85;;;4.57;;
49858;SDS011;35756;52.346;13.622;2022-08-21T04:42:03;7.07;;;4.22;;
49858;SDS011;35756;52.346;13.622;2022-08-21T04:44:29;6.68;;;4.40;;
49858;SDS011;35756;52.346;13.622;2022-08-21T04:46:54;6.30;;;4.10;;
49858;SDS011;35756;52.346;13.622;2022-08-21T04:49:19;4.50;;;3.92;;
49858;SDS011;35756;52.346;13.622;2022-08-21T04:51:45;5.70;;;4.20;;
49858;SDS011;35756;52.346;13.622;2022-08-21T04:54:11;5.78;;;4.03;;
49858;SDS011;35756;52.346;13.622;2022-08-21T04:56:51;6.43;;;4.18;;
49858;SDS011;35756;52.346;13.622;2022-08-21T04:59:21;6.43;;;3.78;;
49858;SDS011;35756;52.346;13.622;2022-08-21T05:01:48;5.07;;;4.00;;
49858;SDS011;35756;52.346;13.622;2022-08-21T05:04:16;5.95;;;4.00;;
49858;SDS011;35756;52.346;13.622;2022-08-21T05:06:44;7.57;;;4.03;;
49858;SDS011;35756;52.346;13.622;2022-08-21T05:09:12;6.30;;;4.15;;
49858;SDS011;35756;52.346;13.622;2022-08-21T05:11:39;6.53;;;4.18;;
49858;SDS011;35756;52.346;13.622;2022-08-21T05:14:05;7.47;;;3.63;;
49858;SDS011;35756;52.346;13.622;2022-08-21T05:16:31;7.28;;;4.30;;
49858;SDS011;35756;52.346;13.622;2022-08-21T05:18:56;6.63;;;4.65;;
49858;SDS011;35756;52.346;13.622;2022-08-21T05:21:21;5.90;;;4.03;;
49858;SDS011;35756;52.346;13.622;2022-08-21T05:23:47;5.28;;;3.50;;
49858;SDS011;35756;52.346;13.622;2022-08-21T05:26:12;7.95;;;4.30;;
49858;SDS011;35756;52.346;13.622;2022-08-21T05:28:37;6.25;;;3.97;;
49858;SDS011;35756;52.346;13.622;2022-08-21T05:31:03;5.50;;;3.58;;
49858;SDS011;35756;52.346;13.622;2022-08-21T05:33:28;5.88;;;3.92;;
49858;SDS011;35756;52.346;13.622;2022-08-21T05:35:54;5.28;;;3.70;;
49858;SDS011;35756;52.346;13.622;2022-08-21T05:38:23;5.25;;;4.10;;
49858;SDS011;35756;52.346;13.622;2022-08-21T05:40:50;6.85;;;3.97;;
49858;SDS011;35756;52.346;13.622;2022-08-21T05:43:16;5.93;;;3.58;;
49858;SDS011;35756;52.346;13.622;2022-08-21T05:45:41;7.40;;;4.43;;
49858;SDS011;35756;52.346;13.622;2022-08-21T05:48:07;4.93;;;3.50;;
49858;SDS011;35756;52.346;13.622;2022-08-21T05:50:34;6.35;;;4.20;;
49858;SDS011;35756;52.346;13.622;2022-08-21T05:53:00;5.53;;;3.90;;
49858;SDS011;35756;52.346;13.622;2022-08-21T05:55:25;5.95;;;4.30;;
49858;SDS011;35756;52.346;13.622;2022-08-21T05:57:50;6.85;;;4.30;;
49858;SDS011;35756;52.346;13.622;2022-08-21T06:00:16;5.55;;;3.92;;
49858;SDS011;35756;52.346;13.622;2022-08-21T06:02:41;5.80;;;3.95;;
49858;SDS011;35756;52.346;13.622;2022-08-21T06:05:06;5.43;;;4.20;;
49858;SDS011;35756;52.346;13.622;2022-08-21T06:07:32;8.68;;;3.90;;
49858;SDS011;35756;52.346;13.622;2022-08-21T06:09:57;6.45;;;3.97;;
49858;SDS011;35756;52.346;13.622;2022-08-21T06:12:23;5.75;;;3.65;;
49858;SDS011;35756;52.346;13.622;2022-08-21T06:14:48;6.30;;;3.72;;
49858;SDS011;35756;52.346;13.622;2022-08-21T06:17:15;7.60;;;4.28;;
49858;SDS011;35756;52.346;13.622;2022-08-21T06:19:40;7.28;;;4.28;;
49858;SDS011;35756;52.346;13.622;2022-08-21T06:22:06;7.28;;;4.25;;
49858;SDS011;35756;52.346;13.622;2022-08-21T06:24:32;7.63;;;3.92;;
49858;SDS011;35756;52.346;13.622;2022-08-21T06:26:57;7.80;;;4.00;;
49858;SDS011;35756;52.346;13.622;2022-08-21T06:29:23;8.82;;;4.05;;
49858;SDS011;35756;52.346;13.622;2022-08-21T06:31:49;7.07;;;3.92;;
49858;SDS011;35756;52.346;13.622;2022-08-21T06:34:14;8.27;;;4.20;;
49858;SDS011;35756;52.346;13.622;2022-08-21T06:36:40;6.95;;;3.97;;
49858;SDS011;35756;52.346;13.622;2022-08-21T06:39:05;7.78;;;4.35;;
49858;SDS011;35756;52.346;13.622;2022-08-21T06:41:31;6.50;;;4.43;;
49858;SDS011;35756;52.346;13.622;2022-08-21T06:43:56;6.70;;;4.53;;
49858;SDS011;35756;52.346;13.622;2022-08-21T06:46:23;7.40;;;4.18;;
49858;SDS011;35756;52.346;13.622;2022-08-21T06:48:48;6.13;;;4.07;;
49858;SDS011;35756;52.346;13.622;2022-08-21T06:51:14;7.78;;;4.72;;
49858;SDS011;35756;52.346;13.622;2022-08-21T06:53:39;9.07;;;4.10;;
49858;SDS011;35756;52.346;13.622;2022-08-21T06:56:04;12.15;;;4.60;;
49858;SDS011;35756;52.346;13.622;2022-08-21T06:58:30;7.07;;;4.13;;
49858;SDS011;35756;52.346;13.622;2022-08-21T07:00:55;8.88;;;4.13;;
49858;SDS011;35756;52.346;13.622;2022-08-21T07:03:26;7.90;;;4.00;;
49858;SDS011;35756;52.346;13.622;2022-08-21T07:05:53;8.83;;;4.60;;
49858;SDS011;35756;52.346;13.622;2022-08-21T07:08:19;6.50;;;4.10;;
49858;SDS011;35756;52.346;13.622;2022-08-21T07:10:46;7.13;;;4.38;;
49858;SDS011;35756;52.346;13.622;2022-08-21T07:13:11;10.73;;;4.70;;
49858;SDS011;35756;52.346;13.622;2022-08-21T07:15:37;7.22;;;4.53;;
49858;SDS011;35756;52.346;13.622;2022-08-21T07:18:02;6.32;;;4.32;;
49858;SDS011;35756;52.346;13.622;2022-08-21T07:20:28;9.10;;;4.57;;
49858;SDS011;35756;52.346;13.622;2022-08-21T07:22:55;8.02;;;4.50;;
49858;SDS011;35756;52.346;13.622;2022-08-21T07:25:21;7.45;;;4.50;;
49858;SDS011;35756;52.346;13.622;2022-08-21T07:27:47;6.53;;;4.20;;
49858;SDS011;35756;52.346;13.622;2022-08-21T07:30:12;7.40;;;4.35;;
49858;SDS011;35756;52.346;13.622;2022-08-21T07:32:37;6.65;;;4.00;;
49858;SDS011;35756;52.346;13.622;2022-08-21T07:35:03;7.65;;;4.50;;
49858;SDS011;35756;52.346;13.622;2022-08-21T07:37:28;7.95;;;3.80;;
49858;SDS011;35756;52.346;13.622;2022-08-21T07:39:54;7.28;;;3.80;;
49858;SDS011;35756;52.346;13.622;2022-08-21T07:42:19;11.45;;;4.03;;
49858;SDS011;35756;52.346;13.622;2022-08-21T07:44:44;6.55;;;3.60;;
49858;SDS011;35756;52.346;13.622;2022-08-21T07:47:10;7.65;;;3.60;;
49858;SDS011;35756;52.346;13.622;2022-08-21T07:49:35;10.05;;;4.45;;
49858;SDS011;35756;52.346;13.622;2022-08-21T07:52:00;6.40;;;3.55;;
49858;SDS011;35756;52.346;13.622;2022-08-21T07:54:26;9.85;;;4.13;;
49858;SDS011;35756;52.346;13.622;2022-08-21T07:56:51;6.95;;;3.53;;
49858;SDS011;35756;52.346;13.622;2022-08-21T07:59:17;12.75;;;3.30;;
49858;SDS011;35756;52.346;13.622;2022-08-21T08:01:42;10.70;;;4.00;;
49858;SDS011;35756;52.346;13.622;2022-08-21T08:04:07;9.10;;;3.00;;
49858;SDS011;35756;52.346;13.622;2022-08-21T08:06:32;9.25;;;3.60;;
49858;SDS011;35756;52.346;13.622;2022-08-21T08:08:58;6.95;;;3.38;;
49858;SDS011;35756;52.346;13.622;2022-08-21T08:11:23;7.72;;;3.22;;
49858;SDS011;35756;52.346;13.622;2022-08-21T08:13:49;7.82;;;3.20;;
49858;SDS011;35756;52.346;13.622;2022-08-21T08:16:16;6.18;;;3.08;;
49858;SDS011;35756;52.346;13.622;2022-08-21T08:18:41;5.68;;;2.70;;
49858;SDS011;35756;52.346;13.622;2022-08-21T08:21:07;5.97;;;2.80;;
49858;SDS011;35756;52.346;13.622;2022-08-21T08:23:33;6.68;;;2.90;;
49858;SDS011;35756;52.346;13.622;2022-08-21T08:25:58;7.75;;;2.78;;
49858;SDS011;35756;52.346;13.622;2022-08-21T08:28:24;6.13;;;2.90;;
49858;SDS011;35756;52.346;13.622;2022-08-21T08:30:49;7.53;;;2.80;;
49858;SDS011;35756;52.346;13.622;2022-08-21T08:33:15;5.10;;;2.20;;
49858;SDS011;35756;52.346;13.622;2022-08-21T08:35:42;6.45;;;2.55;;
49858;SDS011;35756;52.346;13.622;2022-08-21T08:38:10;9.15;;;3.17;;
49858;SDS011;35756;52.346;13.622;2022-08-21T08:40:37;5.32;;;2.42;;
49858;SDS011;35756;52.346;13.622;2022-08-21T08:43:06;4.00;;;2.38;;
49858;SDS011;35756;52.346;13.622;2022-08-21T08:45:32;4.80;;;2.42;;
49858;SDS011;35756;52.346;13.622;2022-08-21T08:48:03;6.20;;;2.47;;
49858;SDS011;35756;52.346;13.622;2022-08-21T08:55:33;5.55;;;2.13;;
49858;SDS011;35756;52.346;13.622;2022-08-21T08:58:01;7.63;;;2.85;;
49858;SDS011;35756;52.346;13.622;2022-08-21T09:00:28;7.20;;;2.70;;
49858;SDS011;35756;52.346;13.622;2022-08-21T09:02:54;5.53;;;2.60;;
49858;SDS011;35756;52.346;13.622;2022-08-21T09:05:25;3.08;;;2.30;;
49858;SDS011;35756;52.346;13.622;2022-08-21T09:08:06;4.32;;;2.35;;
49858;SDS011;35756;52.346;13.622;2022-08-21T09:10:45;5.18;;;2.55;;
49858;SDS011;35756;52.346;13.622;2022-08-21T09:13:19;4.45;;;2.08;;
49858;SDS011;35756;52.346;13.622;2022-08-21T09:15:51;7.75;;;2.42;;
49858;SDS011;35756;52.346;13.622;2022-08-21T09:23:59;4.20;;;2.20;;
49858;SDS011;35756;52.346;13.622;2022-08-21T09:26:30;6.78;;;2.45;;
49858;SDS011;35756;52.346;13.622;2022-08-21T09:29:08;3.97;;;2.10;;
49858;SDS011;35756;52.346;13.622;2022-08-21T09:31:36;3.50;;;2.30;;
49858;SDS011;35756;52.346;13.622;2022-08-21T09:34:05;4.63;;;2.35;;
49858;SDS011;35756;52.346;13.622;2022-08-21T09:36:41;4.53;;;2.13;;
49858;SDS011;35756;52.346;13.622;2022-08-21T09:39:08;4.13;;;2.25;;
49858;SDS011;35756;52.346;13.622;2022-08-21T09:41:36;3.90;;;2.33;;
49858;SDS011;35756;52.346;13.622;2022-08-21T09:44:02;4.38;;;2.22;;
49858;SDS011;35756;52.346;13.622;2022-08-21T09:46:29;4.93;;;2.40;;
49858;SDS011;35756;52.346;13.622;2022-08-21T09:48:56;5.13;;;2.20;;
49858;SDS011;35756;52.346;13.622;2022-08-21T09:51:24;4.55;;;2.28;;
49858;SDS011;35756;52.346;13.622;2022-08-21T09:56:31;5.80;;;2.35;;
49858;SDS011;35756;52.346;13.622;2022-08-21T09:59:20;4.75;;;2.22;;
49858;SDS011;35756;52.346;13.622;2022-08-21T10:01:52;5.78;;;2.40;;
49858;SDS011;35756;52.346;13.622;2022-08-21T10:04:20;4.70;;;2.60;;
49858;SDS011;35756;52.346;13.622;2022-08-21T10:06:51;6.45;;;2.70;;
49858;SDS011;35756;52.346;13.622;2022-08-21T10:09:18;3.50;;;2.13;;
49858;SDS011;35756;52.346;13.622;2022-08-21T10:11:52;4.03;;;2.00;;
49858;SDS011;35756;52.346;13.622;2022-08-21T10:17:07;5.43;;;2.22;;
49858;SDS011;35756;52.346;13.622;2022-08-21T10:19:42;10.13;;;2.33;;
49858;SDS011;35756;52.346;13.622;2022-08-21T10:25:14;4.30;;;2.40;;
49858;SDS011;35756;52.346;13.622;2022-08-21T10:28:00;6.93;;;2.60;;
49858;SDS011;35756;52.346;13.622;2022-08-21T10:30:41;3.90;;;2.17;;
49858;SDS011;35756;52.346;13.622;2022-08-21T10:33:16;5.07;;;2.38;;
49858;SDS011;35756;52.346;13.622;2022-08-21T10:35:52;8.73;;;2.50;;
49858;SDS011;35756;52.346;13.622;2022-08-21T10:38:32;6.05;;;2.35;;
49858;SDS011;35756;52.346;13.622;2022-08-21T10:41:39;7.05;;;2.30;;
49858;SDS011;35756;52.346;13.622;2022-08-21T10:52:31;5.15;;;2.40;;
49858;SDS011;35756;52.346;13.622;2022-08-21T10:55:19;5.50;;;2.42;;
49858;SDS011;35756;52.346;13.622;2022-08-21T10:58:08;7.72;;;2.47;;
49858;SDS011;35756;52.346;13.622;2022-08-21T11:00:48;5.70;;;2.40;;
49858;SDS011;35756;52.346;13.622;2022-08-21T11:03:17;4.47;;;2.40;;
49858;SDS011;35756;52.346;13.622;2022-08-21T11:05:48;6.78;;;2.28;;
49858;SDS011;35756;52.346;13.622;2022-08-21T11:08:30;6.20;;;2.45;;
49858;SDS011;35756;52.346;13.622;2022-08-21T11:11:09;4.35;;;2.30;;
49858;SDS011;35756;52.346;13.622;2022-08-21T11:13:58;5.10;;;2.13;;
49858;SDS011;35756;52.346;13.622;2022-08-21T11:16:36;7.97;;;2.40;;
49858;SDS011;35756;52.346;13.622;2022-08-21T11:19:07;4.45;;;2.13;;
49858;SDS011;35756;52.346;13.622;2022-08-21T11:21:38;4.68;;;2.47;;
49858;SDS011;35756;52.346;13.622;2022-08-21T11:29:59;5.00;;;2.75;;
49858;SDS011;35756;52.346;13.622;2022-08-21T11:35:31;5.30;;;2.05;;
49858;SDS011;35756;52.346;13.622;2022-08-21T11:40:44;6.65;;;2.35;;
49858;SDS011;35756;52.346;13.622;2022-08-21T11:43:22;5.55;;;2.38;;
49858;SDS011;35756;52.346;13.622;2022-08-21T11:45:56;5.07;;;2.25;;
49858;SDS011;35756;52.346;13.622;2022-08-21T11:48:32;6.07;;;2.53;;
49858;SDS011;35756;52.346;13.622;2022-08-21T11:51:04;5.57;;;2.10;;
49858;SDS011;35756;52.346;13.622;2022-08-21T11:53:45;3.53;;;2.30;;
49858;SDS011;35756;52.346;13.622;2022-08-21T11:56:21;6.07;;;2.42;;
49858;SDS011;35756;52.346;13.622;2022-08-21T11:58:55;7.03;;;2.55;;
49858;SDS011;35756;52.346;13.622;2022-08-21T12:01:24;4.82;;;2.10;;
49858;SDS011;35756;52.346;13.622;2022-08-21T12:04:00;5.32;;;2.80;;
49858;SDS011;35756;52.346;13.622;2022-08-21T12:06:32;5.03;;;2.42;;
49858;SDS011;35756;52.346;13.622;2022-08-21T12:09:07;4.82;;;2.30;;
49858;SDS011;35756;52.346;13.622;2022-08-21T12:11:45;4.85;;;2.47;;
49858;SDS011;35756;52.346;13.622;2022-08-21T12:14:13;5.00;;;2.55;;
49858;SDS011;35756;52.346;13.622;2022-08-21T12:16:42;5.10;;;2.40;;
49858;SDS011;35756;52.346;13.622;2022-08-21T12:19:10;6.45;;;2.63;;
49858;SDS011;35756;52.346;13.622;2022-08-21T12:21:58;4.13;;;2.08;;
49858;SDS011;35756;52.346;13.622;2022-08-21T12:30:01;5.80;;;2.10;;
49858;SDS011;35756;52.346;13.622;2022-08-21T12:32:30;4.15;;;1.85;;
49858;SDS011;35756;52.346;13.622;2022-08-21T12:35:14;4.50;;;2.30;;
49858;SDS011;35756;52.346;13.622;2022-08-21T12:37:49;6.03;;;2.45;;
49858;SDS011;35756;52.346;13.622;2022-08-21T12:42:46;5.28;;;2.40;;
49858;SDS011;35756;52.346;13.622;2022-08-21T12:45:34;4.03;;;2.08;;
49858;SDS011;35756;52.346;13.622;2022-08-21T12:48:11;4.50;;;2.65;;
49858;SDS011;35756;52.346;13.622;2022-08-21T12:53:29;6.55;;;2.30;;
49858;SDS011;35756;52.346;13.622;2022-08-21T12:55:56;6.07;;;2.30;;
49858;SDS011;35756;52.346;13.622;2022-08-21T12:58:26;3.42;;;1.80;;
49858;SDS011;35756;52.346;13.622;2022-08-21T13:00:53;4.45;;;2.22;;
49858;SDS011;35756;52.346;13.622;2022-08-21T13:03:21;4.30;;;2.10;;
49858;SDS011;35756;52.346;13.622;2022-08-21T13:05:47;5.68;;;2.00;;
49858;SDS011;35756;52.346;13.622;2022-08-21T13:08:13;4.82;;;2.10;;
49858;SDS011;35756;52.346;13.622;2022-08-21T13:10:39;4.15;;;1.98;;
49858;SDS011;35756;52.346;13.622;2022-08-21T13:13:06;3.88;;;2.03;;
49858;SDS011;35756;52.346;13.622;2022-08-21T13:15:36;4.25;;;2.13;;
49858;SDS011;35756;52.346;13.622;2022-08-21T13:18:03;4.15;;;1.75;;
49858;SDS011;35756;52.346;13.622;2022-08-21T13:20:31;4.97;;;2.10;;
49858;SDS011;35756;52.346;13.622;2022-08-21T13:23:06;5.20;;;2.20;;
49858;SDS011;35756;52.346;13.622;2022-08-21T13:25:47;4.25;;;2.10;;
49858;SDS011;35756;52.346;13.622;2022-08-21T13:28:13;3.30;;;1.90;;
49858;SDS011;35756;52.346;13.622;2022-08-21T13:30:44;4.38;;;2.33;;
49858;SDS011;35756;52.346;13.622;2022-08-21T13:33:11;4.35;;;2.13;;
49858;SDS011;35756;52.346;13.622;2022-08-21T13:35:56;2.92;;;1.75;;
49858;SDS011;35756;52.346;13.622;2022-08-21T13:38:26;3.58;;;1.77;;
49858;SDS011;35756;52.346;13.622;2022-08-21T13:41:55;4.38;;;2.15;;
49858;SDS011;35756;52.346;13.622;2022-08-21T13:43:59;3.60;;;1.58;;
49858;SDS011;35756;52.346;13.622;2022-08-21T13:46:28;4.63;;;2.08;;
49858;SDS011;35756;52.346;13.622;2022-08-21T13:48:55;5.18;;;2.50;;
49858;SDS011;35756;52.346;13.622;2022-08-21T13:51:21;3.08;;;1.90;;
49858;SDS011;35756;52.346;13.622;2022-08-21T13:53:48;3.60;;;1.92;;
49858;SDS011;35756;52.346;13.622;2022-08-21T13:56:25;3.95;;;2.05;;
49858;SDS011;35756;52.346;13.622;2022-08-21T13:58:55;4.35;;;2.00;;
49858;SDS011;35756;52.346;13.622;2022-08-21T14:03:50;4.43;;;2.10;;
49858;SDS011;35756;52.346;13.622;2022-08-21T14:06:18;2.92;;;1.63;;
49858;SDS011;35756;52.346;13.622;2022-08-21T14:08:50;4.82;;;1.95;;
49858;SDS011;35756;52.346;13.622;2022-08-21T14:11:18;4.00;;;2.00;;
49858;SDS011;35756;52.346;13.622;2022-08-21T14:13:45;4.47;;;1.75;;
49858;SDS011;35756;52.346;13.622;2022-08-21T14:16:17;5.03;;;1.75;;
49858;SDS011;35756;52.346;13.622;2022-08-21T14:18:45;4.05;;;1.90;;
49858;SDS011;35756;52.346;13.622;2022-08-21T14:21:11;2.45;;;1.70;;
49858;SDS011;35756;52.346;13.622;2022-08-21T14:23:38;3.20;;;1.85;;
49858;SDS011;35756;52.346;13.622;2022-08-21T14:26:04;4.22;;;1.77;;
49858;SDS011;35756;52.346;13.622;2022-08-21T14:28:32;4.13;;;1.73;;
49858;SDS011;35756;52.346;13.622;2022-08-21T14:31:10;3.22;;;1.75;;
49858;SDS011;35756;52.346;13.622;2022-08-21T14:33:40;3.90;;;1.60;;
49858;SDS011;35756;52.346;13.622;2022-08-21T14:36:05;3.13;;;1.30;;
49858;SDS011;35756;52.346;13.622;2022-08-21T14:38:31;2.63;;;1.48;;
49858;SDS011;35756;52.346;13.622;2022-08-21T14:40:58;5.03;;;1.67;;
49858;SDS011;35756;52.346;13.622;2022-08-21T14:43:36;2.97;;;1.40;;
49858;SDS011;35756;52.346;13.622;2022-08-21T14:46:01;2.75;;;1.65;;
49858;SDS011;35756;52.346;13.622;2022-08-21T14:48:27;3.78;;;1.75;;
49858;SDS011;35756;52.346;13.622;2022-08-21T14:50:52;3.47;;;1.50;;
49858;SDS011;35756;52.346;13.622;2022-08-21T14:53:17;3.10;;;1.55;;
49858;SDS011;35756;52.346;13.622;2022-08-21T14:55:43;3.47;;;1.80;;
49858;SDS011;35756;52.346;13.622;2022-08-21T14:58:27;3.30;;;1.77;;
49858;SDS011;35756;52.346;13.622;2022-08-21T15:00:52;3.10;;;2.00;;
49858;SDS011;35756;52.346;13.622;2022-08-21T15:03:19;2.67;;;1.67;;
49858;SDS011;35756;52.346;13.622;2022-08-21T15:05:46;3.97;;;1.80;;
49858;SDS011;35756;52.346;13.622;2022-08-21T15:08:11;3.25;;;1.63;;
49858;SDS011;35756;52.346;13.622;2022-08-21T15:10:37;2.67;;;1.70;;
49858;SDS011;35756;52.346;13.622;2022-08-21T15:13:02;3.58;;;1.90;;
49858;SDS011;35756;52.346;13.622;2022-08-21T15:15:28;4.03;;;1.70;;
49858;SDS011;35756;52.346;13.622;2022-08-21T15:17:55;6.38;;;2.05;;
49858;SDS011;35756;52.346;13.622;2022-08-21T15:20:20;5.63;;;2.22;;
49858;SDS011;35756;52.346;13.622;2022-08-21T15:22:45;3.92;;;1.95;;
49858;SDS011;35756;52.346;13.622;2022-08-21T15:25:11;5.85;;;2.10;;
49858;SDS011;35756;52.346;13.622;2022-08-21T15:27:36;5.00;;;2.08;;
49858;SDS011;35756;52.346;13.622;2022-08-21T15:30:03;4.18;;;1.90;;
49858;SDS011;35756;52.346;13.622;2022-08-21T15:32:29;2.95;;;1.70;;
49858;SDS011;35756;52.346;13.622;2022-08-21T15:34:55;4.30;;;2.08;;
49858;SDS011;35756;52.346;13.622;2022-08-21T15:37:21;4.78;;;2.05;;